Terminal Aerodrome Forecast
Issued by NWS Duluth, MN

Home | Current Version | Previous Version | Text Only | Print | Product List | Glossary On
Versions: 1 2 3 4 5 6 7 8 9 10 11 12 13 14 15 16 17 18 19 20 21 22 23
000
FTUS43 KDLH 260500
TAFDLH
TAF
KDLH 260525Z 2606/2706 34004KT P6SM OVC023
     FM260900 35006KT 6SM -SN BKN018 OVC030
     FM261600 36005KT P6SM -SN OVC016
     FM262200 34006KT P6SM OVC014
      TEMPO 2701/2704 -FZDZ=

USA.gov is the U.S. government's official web portal to all federal, state and local government web resources and services.